sensor_id;sensor_type;location;lat;lon;timestamp;P1;durP1;ratioP1;P2;durP2;ratioP2
65471;SDS011;52068;50.710;14.492;2024-02-04T00:01:35;2.90;;;2.53;;
65471;SDS011;52068;50.710;14.492;2024-02-04T00:04:00;4.80;;;2.70;;
65471;SDS011;52068;50.710;14.492;2024-02-04T00:06:26;3.60;;;2.85;;
65471;SDS011;52068;50.710;14.492;2024-02-04T00:08:51;4.63;;;3.10;;
65471;SDS011;52068;50.710;14.492;2024-02-04T00:11:17;3.83;;;2.42;;
65471;SDS011;52068;50.710;14.492;2024-02-04T00:13:42;2.88;;;2.17;;
65471;SDS011;52068;50.710;14.492;2024-02-04T00:16:08;3.67;;;2.58;;
65471;SDS011;52068;50.710;14.492;2024-02-04T00:18:33;2.95;;;2.45;;
65471;SDS011;52068;50.710;14.492;2024-02-04T00:20:59;2.90;;;2.15;;
65471;SDS011;52068;50.710;14.492;2024-02-04T00:23:24;3.20;;;2.88;;
65471;SDS011;52068;50.710;14.492;2024-02-04T00:25:49;4.13;;;2.40;;
65471;SDS011;52068;50.710;14.492;2024-02-04T00:28:15;5.72;;;2.45;;
65471;SDS011;52068;50.710;14.492;2024-02-04T00:30:40;7.72;;;2.83;;
65471;SDS011;52068;50.710;14.492;2024-02-04T00:33:06;2.95;;;2.50;;
65471;SDS011;52068;50.710;14.492;2024-02-04T00:35:31;3.20;;;2.47;;
65471;SDS011;52068;50.710;14.492;2024-02-04T00:37:56;4.63;;;2.40;;
65471;SDS011;52068;50.710;14.492;2024-02-04T00:40:22;11.48;;;2.50;;
65471;SDS011;52068;50.710;14.492;2024-02-04T00:42:48;17.33;;;2.20;;
65471;SDS011;52068;50.710;14.492;2024-02-04T00:45:13;3.33;;;2.30;;
65471;SDS011;52068;50.710;14.492;2024-02-04T00:47:39;3.47;;;2.20;;
65471;SDS011;52068;50.710;14.492;2024-02-04T00:50:04;6.50;;;2.60;;
65471;SDS011;52068;50.710;14.492;2024-02-04T00:52:30;5.18;;;2.35;;
65471;SDS011;52068;50.710;14.492;2024-02-04T00:54:56;3.53;;;1.92;;
65471;SDS011;52068;50.710;14.492;2024-02-04T00:57:21;2.42;;;2.17;;
65471;SDS011;52068;50.710;14.492;2024-02-04T00:59:46;2.50;;;2.08;;
65471;SDS011;52068;50.710;14.492;2024-02-04T01:02:12;3.05;;;1.90;;
65471;SDS011;52068;50.710;14.492;2024-02-04T01:04:37;15.00;;;1.80;;
65471;SDS011;52068;50.710;14.492;2024-02-04T01:07:02;3.15;;;2.20;;
65471;SDS011;52068;50.710;14.492;2024-02-04T01:09:28;2.13;;;1.90;;
65471;SDS011;52068;50.710;14.492;2024-02-04T01:11:54;3.30;;;2.30;;
65471;SDS011;52068;50.710;14.492;2024-02-04T01:14:19;3.67;;;2.10;;
65471;SDS011;52068;50.710;14.492;2024-02-04T01:16:44;2.17;;;1.83;;
65471;SDS011;52068;50.710;14.492;2024-02-04T01:19:10;2.85;;;2.10;;
65471;SDS011;52068;50.710;14.492;2024-02-04T01:21:35;1.80;;;1.60;;
65471;SDS011;52068;50.710;14.492;2024-02-04T01:24:01;2.67;;;1.92;;
65471;SDS011;52068;50.710;14.492;2024-02-04T01:26:26;2.28;;;2.08;;
65471;SDS011;52068;50.710;14.492;2024-02-04T01:28:51;2.00;;;1.80;;
65471;SDS011;52068;50.710;14.492;2024-02-04T01:31:17;2.65;;;1.90;;
65471;SDS011;52068;50.710;14.492;2024-02-04T01:33:42;2.85;;;2.05;;
65471;SDS011;52068;50.710;14.492;2024-02-04T01:36:07;3.25;;;2.13;;
65471;SDS011;52068;50.710;14.492;2024-02-04T01:38:33;2.63;;;1.90;;
65471;SDS011;52068;50.710;14.492;2024-02-04T01:40:58;2.00;;;1.80;;
65471;SDS011;52068;50.710;14.492;2024-02-04T01:43:24;2.30;;;2.08;;
65471;SDS011;52068;50.710;14.492;2024-02-04T01:45:50;2.58;;;1.73;;
65471;SDS011;52068;50.710;14.492;2024-02-04T01:48:17;1.65;;;1.55;;
65471;SDS011;52068;50.710;14.492;2024-02-04T01:50:44;2.33;;;1.67;;
65471;SDS011;52068;50.710;14.492;2024-02-04T01:53:09;2.42;;;1.83;;
65471;SDS011;52068;50.710;14.492;2024-02-04T01:55:35;1.90;;;1.70;;
65471;SDS011;52068;50.710;14.492;2024-02-04T01:58:01;2.03;;;1.80;;
65471;SDS011;52068;50.710;14.492;2024-02-04T02:00:27;2.53;;;1.90;;
65471;SDS011;52068;50.710;14.492;2024-02-04T02:02:53;2.75;;;1.65;;
65471;SDS011;52068;50.710;14.492;2024-02-04T02:05:21;3.08;;;1.88;;
65471;SDS011;52068;50.710;14.492;2024-02-04T02:07:47;2.08;;;1.77;;
65471;SDS011;52068;50.710;14.492;2024-02-04T02:10:16;3.05;;;1.67;;
65471;SDS011;52068;50.710;14.492;2024-02-04T02:12:56;2.33;;;1.50;;
65471;SDS011;52068;50.710;14.492;2024-02-04T02:15:38;10.38;;;1.88;;
65471;SDS011;52068;50.710;14.492;2024-02-04T02:18:20;3.60;;;1.60;;
65471;SDS011;52068;50.710;14.492;2024-02-04T02:21:10;1.65;;;1.50;;
65471;SDS011;52068;50.710;14.492;2024-02-04T02:24:14;2.33;;;1.60;;
65471;SDS011;52068;50.710;14.492;2024-02-04T02:26:51;1.50;;;1.30;;
65471;SDS011;52068;50.710;14.492;2024-02-04T02:29:18;2.17;;;1.45;;
65471;SDS011;52068;50.710;14.492;2024-02-04T02:31:46;2.63;;;1.45;;
65471;SDS011;52068;50.710;14.492;2024-02-04T02:34:12;1.75;;;1.40;;
65471;SDS011;52068;50.710;14.492;2024-02-04T02:36:41;2.15;;;1.60;;
65471;SDS011;52068;50.710;14.492;2024-02-04T02:39:23;1.42;;;1.20;;
65471;SDS011;52068;50.710;14.492;2024-02-04T02:41:51;1.48;;;1.35;;
65471;SDS011;52068;50.710;14.492;2024-02-04T02:44:21;2.65;;;1.70;;
65471;SDS011;52068;50.710;14.492;2024-02-04T02:46:50;1.80;;;1.40;;
65471;SDS011;52068;50.710;14.492;2024-02-04T02:49:15;4.60;;;1.83;;
65471;SDS011;52068;50.710;14.492;2024-02-04T02:51:41;2.78;;;1.60;;
65471;SDS011;52068;50.710;14.492;2024-02-04T02:54:06;1.48;;;1.30;;
65471;SDS011;52068;50.710;14.492;2024-02-04T02:56:31;1.50;;;1.40;;
65471;SDS011;52068;50.710;14.492;2024-02-04T02:58:57;1.95;;;1.30;;
65471;SDS011;52068;50.710;14.492;2024-02-04T03:01:22;1.30;;;1.20;;
65471;SDS011;52068;50.710;14.492;2024-02-04T03:03:49;1.50;;;1.40;;
65471;SDS011;52068;50.710;14.492;2024-02-04T03:06:14;1.83;;;1.40;;
65471;SDS011;52068;50.710;14.492;2024-02-04T03:08:40;1.35;;;1.25;;
65471;SDS011;52068;50.710;14.492;2024-02-04T03:11:05;1.50;;;1.40;;
65471;SDS011;52068;50.710;14.492;2024-02-04T03:13:30;1.30;;;1.20;;
65471;SDS011;52068;50.710;14.492;2024-02-04T03:15:56;1.85;;;1.70;;
65471;SDS011;52068;50.710;14.492;2024-02-04T03:18:21;1.50;;;1.30;;
65471;SDS011;52068;50.710;14.492;2024-02-04T03:20:46;1.63;;;1.30;;
65471;SDS011;52068;50.710;14.492;2024-02-04T03:23:12;1.85;;;1.27;;
65471;SDS011;52068;50.710;14.492;2024-02-04T03:25:37;1.38;;;1.27;;
65471;SDS011;52068;50.710;14.492;2024-02-04T03:28:03;1.58;;;1.35;;
65471;SDS011;52068;50.710;14.492;2024-02-04T03:30:29;1.70;;;1.23;;
65471;SDS011;52068;50.710;14.492;2024-02-04T03:32:54;2.65;;;1.08;;
65471;SDS011;52068;50.710;14.492;2024-02-04T03:35:20;1.77;;;1.23;;
65471;SDS011;52068;50.710;14.492;2024-02-04T03:37:45;1.88;;;1.40;;
65471;SDS011;52068;50.710;14.492;2024-02-04T03:40:11;2.13;;;1.50;;
65471;SDS011;52068;50.710;14.492;2024-02-04T03:42:37;1.23;;;1.08;;
65471;SDS011;52068;50.710;14.492;2024-02-04T03:45:02;1.63;;;1.20;;
65471;SDS011;52068;50.710;14.492;2024-02-04T03:47:28;1.58;;;1.30;;
65471;SDS011;52068;50.710;14.492;2024-02-04T03:49:54;1.27;;;1.17;;
65471;SDS011;52068;50.710;14.492;2024-02-04T03:52:19;2.85;;;1.08;;
65471;SDS011;52068;50.710;14.492;2024-02-04T03:54:44;1.48;;;1.23;;
65471;SDS011;52068;50.710;14.492;2024-02-04T03:57:10;1.77;;;1.20;;
65471;SDS011;52068;50.710;14.492;2024-02-04T03:59:35;1.63;;;1.15;;
65471;SDS011;52068;50.710;14.492;2024-02-04T04:02:01;1.73;;;1.10;;
65471;SDS011;52068;50.710;14.492;2024-02-04T04:04:26;1.27;;;1.10;;
65471;SDS011;52068;50.710;14.492;2024-02-04T04:06:51;1.02;;;1.00;;
65471;SDS011;52068;50.710;14.492;2024-02-04T04:09:17;1.25;;;1.10;;
65471;SDS011;52068;50.710;14.492;2024-02-04T04:11:42;1.10;;;1.00;;
65471;SDS011;52068;50.710;14.492;2024-02-04T04:14:08;1.35;;;1.10;;
65471;SDS011;52068;50.710;14.492;2024-02-04T04:16:33;1.10;;;1.05;;
65471;SDS011;52068;50.710;14.492;2024-02-04T04:18:58;1.10;;;1.00;;
65471;SDS011;52068;50.710;14.492;2024-02-04T04:21:24;1.33;;;1.00;;
65471;SDS011;52068;50.710;14.492;2024-02-04T04:23:49;1.70;;;1.10;;
65471;SDS011;52068;50.710;14.492;2024-02-04T04:26:15;4.80;;;0.95;;
65471;SDS011;52068;50.710;14.492;2024-02-04T04:28:40;1.15;;;1.05;;
65471;SDS011;52068;50.710;14.492;2024-02-04T04:31:05;1.88;;;1.30;;
65471;SDS011;52068;50.710;14.492;2024-02-04T04:33:31;1.20;;;0.93;;
65471;SDS011;52068;50.710;14.492;2024-02-04T04:35:56;1.05;;;0.95;;
65471;SDS011;52068;50.710;14.492;2024-02-04T04:38:22;3.10;;;1.10;;
65471;SDS011;52068;50.710;14.492;2024-02-04T04:40:47;4.95;;;1.00;;
65471;SDS011;52068;50.710;14.492;2024-02-04T04:43:13;1.65;;;1.00;;
65471;SDS011;52068;50.710;14.492;2024-02-04T04:45:38;3.03;;;1.10;;
65471;SDS011;52068;50.710;14.492;2024-02-04T04:48:05;1.23;;;1.00;;
65471;SDS011;52068;50.710;14.492;2024-02-04T04:50:32;1.65;;;1.15;;
65471;SDS011;52068;50.710;14.492;2024-02-04T04:52:58;4.93;;;1.15;;
65471;SDS011;52068;50.710;14.492;2024-02-04T04:55:23;3.20;;;1.35;;
65471;SDS011;52068;50.710;14.492;2024-02-04T04:57:48;0.90;;;0.90;;
65471;SDS011;52068;50.710;14.492;2024-02-04T05:00:14;1.50;;;0.90;;
65471;SDS011;52068;50.710;14.492;2024-02-04T05:02:40;0.80;;;0.80;;
65471;SDS011;52068;50.710;14.492;2024-02-04T05:05:05;2.50;;;1.10;;
65471;SDS011;52068;50.710;14.492;2024-02-04T05:07:31;1.75;;;1.10;;
65471;SDS011;52068;50.710;14.492;2024-02-04T05:09:57;0.93;;;0.90;;
65471;SDS011;52068;50.710;14.492;2024-02-04T05:12:22;1.10;;;0.98;;
65471;SDS011;52068;50.710;14.492;2024-02-04T05:14:48;0.77;;;0.77;;
65471;SDS011;52068;50.710;14.492;2024-02-04T05:17:13;1.00;;;0.90;;
65471;SDS011;52068;50.710;14.492;2024-02-04T05:19:40;1.13;;;1.00;;
65471;SDS011;52068;50.710;14.492;2024-02-04T05:22:07;3.45;;;0.98;;
65471;SDS011;52068;50.710;14.492;2024-02-04T05:24:33;0.65;;;0.65;;
65471;SDS011;52068;50.710;14.492;2024-02-04T05:26:58;1.58;;;0.98;;
65471;SDS011;52068;50.710;14.492;2024-02-04T05:29:23;2.75;;;1.27;;
65471;SDS011;52068;50.710;14.492;2024-02-04T05:31:49;0.80;;;0.80;;
65471;SDS011;52068;50.710;14.492;2024-02-04T05:34:14;0.80;;;0.80;;
65471;SDS011;52068;50.710;14.492;2024-02-04T05:36:39;0.93;;;0.90;;
65471;SDS011;52068;50.710;14.492;2024-02-04T05:39:12;0.75;;;0.75;;
65471;SDS011;52068;50.710;14.492;2024-02-04T05:44:05;1.48;;;0.90;;
65471;SDS011;52068;50.710;14.492;2024-02-04T05:46:31;0.80;;;0.80;;
65471;SDS011;52068;50.710;14.492;2024-02-04T05:48:57;0.90;;;0.80;;
65471;SDS011;52068;50.710;14.492;2024-02-04T05:51:22;2.38;;;0.80;;
65471;SDS011;52068;50.710;14.492;2024-02-04T05:53:47;1.38;;;1.10;;
65471;SDS011;52068;50.710;14.492;2024-02-04T05:56:13;1.55;;;0.65;;
65471;SDS011;52068;50.710;14.492;2024-02-04T05:58:39;0.70;;;0.70;;
65471;SDS011;52068;50.710;14.492;2024-02-04T06:01:04;0.90;;;0.80;;
65471;SDS011;52068;50.710;14.492;2024-02-04T06:03:30;0.70;;;0.70;;
65471;SDS011;52068;50.710;14.492;2024-02-04T06:05:55;0.85;;;0.85;;
65471;SDS011;52068;50.710;14.492;2024-02-04T06:08:20;0.82;;;0.82;;
65471;SDS011;52068;50.710;14.492;2024-02-04T06:10:46;6.53;;;0.85;;
65471;SDS011;52068;50.710;14.492;2024-02-04T06:13:11;1.45;;;0.80;;
65471;SDS011;52068;50.710;14.492;2024-02-04T06:15:37;4.10;;;0.90;;
65471;SDS011;52068;50.710;14.492;2024-02-04T06:18:02;1.75;;;0.80;;
65471;SDS011;52068;50.710;14.492;2024-02-04T06:20:28;3.15;;;0.70;;
65471;SDS011;52068;50.710;14.492;2024-02-04T06:22:53;1.55;;;0.80;;
65471;SDS011;52068;50.710;14.492;2024-02-04T06:25:19;3.25;;;0.80;;
65471;SDS011;52068;50.710;14.492;2024-02-04T06:27:44;1.67;;;0.80;;
65471;SDS011;52068;50.710;14.492;2024-02-04T06:30:10;0.98;;;0.80;;
65471;SDS011;52068;50.710;14.492;2024-02-04T06:32:36;0.85;;;0.75;;
65471;SDS011;52068;50.710;14.492;2024-02-04T06:35:01;1.48;;;0.90;;
65471;SDS011;52068;50.710;14.492;2024-02-04T06:37:27;1.40;;;0.90;;
65471;SDS011;52068;50.710;14.492;2024-02-04T06:39:53;3.13;;;0.82;;
65471;SDS011;52068;50.710;14.492;2024-02-04T06:42:18;1.25;;;0.80;;
65471;SDS011;52068;50.710;14.492;2024-02-04T06:44:44;1.00;;;0.70;;
65471;SDS011;52068;50.710;14.492;2024-02-04T06:47:10;0.73;;;0.63;;
65471;SDS011;52068;50.710;14.492;2024-02-04T06:49:38;0.90;;;0.63;;
65471;SDS011;52068;50.710;14.492;2024-02-04T06:52:04;0.85;;;0.85;;
65471;SDS011;52068;50.710;14.492;2024-02-04T06:54:30;2.67;;;0.82;;
65471;SDS011;52068;50.710;14.492;2024-02-04T06:56:55;0.60;;;0.60;;
65471;SDS011;52068;50.710;14.492;2024-02-04T06:59:21;2.30;;;0.68;;
65471;SDS011;52068;50.710;14.492;2024-02-04T07:01:46;1.10;;;0.60;;
65471;SDS011;52068;50.710;14.492;2024-02-04T07:04:12;0.90;;;0.57;;
65471;SDS011;52068;50.710;14.492;2024-02-04T07:06:37;5.40;;;0.60;;
65471;SDS011;52068;50.710;14.492;2024-02-04T07:09:03;0.50;;;0.50;;
65471;SDS011;52068;50.710;14.492;2024-02-04T07:11:28;0.65;;;0.65;;
65471;SDS011;52068;50.710;14.492;2024-02-04T07:13:54;0.60;;;0.50;;
65471;SDS011;52068;50.710;14.492;2024-02-04T07:16:25;0.55;;;0.55;;
65471;SDS011;52068;50.710;14.492;2024-02-04T07:18:50;1.83;;;0.88;;
65471;SDS011;52068;50.710;14.492;2024-02-04T07:21:16;0.70;;;0.60;;
65471;SDS011;52068;50.710;14.492;2024-02-04T07:23:41;2.08;;;0.63;;
65471;SDS011;52068;50.710;14.492;2024-02-04T07:26:07;1.00;;;0.77;;
65471;SDS011;52068;50.710;14.492;2024-02-04T07:28:33;0.88;;;0.47;;
65471;SDS011;52068;50.710;14.492;2024-02-04T07:30:58;0.55;;;0.55;;
65471;SDS011;52068;50.710;14.492;2024-02-04T07:33:24;0.85;;;0.75;;
65471;SDS011;52068;50.710;14.492;2024-02-04T07:35:49;2.42;;;0.70;;
65471;SDS011;52068;50.710;14.492;2024-02-04T07:38:14;0.70;;;0.60;;
65471;SDS011;52068;50.710;14.492;2024-02-04T07:40:40;0.80;;;0.70;;
65471;SDS011;52068;50.710;14.492;2024-02-04T07:43:05;2.97;;;0.60;;
65471;SDS011;52068;50.710;14.492;2024-02-04T07:45:30;2.55;;;0.60;;
65471;SDS011;52068;50.710;14.492;2024-02-04T07:47:56;3.85;;;0.70;;
65471;SDS011;52068;50.710;14.492;2024-02-04T07:50:21;1.60;;;0.73;;
65471;SDS011;52068;50.710;14.492;2024-02-04T07:52:47;1.05;;;0.55;;
65471;SDS011;52068;50.710;14.492;2024-02-04T07:55:12;2.08;;;0.90;;
65471;SDS011;52068;50.710;14.492;2024-02-04T07:57:38;0.50;;;0.50;;
65471;SDS011;52068;50.710;14.492;2024-02-04T08:00:03;0.40;;;0.40;;
65471;SDS011;52068;50.710;14.492;2024-02-04T08:02:30;2.58;;;0.70;;
65471;SDS011;52068;50.710;14.492;2024-02-04T08:04:56;0.98;;;0.80;;
65471;SDS011;52068;50.710;14.492;2024-02-04T08:07:21;9.32;;;3.50;;
65471;SDS011;52068;50.710;14.492;2024-02-04T08:09:47;11.70;;;3.13;;
65471;SDS011;52068;50.710;14.492;2024-02-04T08:12:12;4.88;;;2.35;;
65471;SDS011;52068;50.710;14.492;2024-02-04T08:14:37;5.65;;;2.08;;
65471;SDS011;52068;50.710;14.492;2024-02-04T08:17:03;13.40;;;2.58;;
65471;SDS011;52068;50.710;14.492;2024-02-04T08:19:28;7.95;;;2.20;;
65471;SDS011;52068;50.710;14.492;2024-02-04T08:21:54;9.55;;;3.15;;
65471;SDS011;52068;50.710;14.492;2024-02-04T08:24:19;7.25;;;3.08;;
65471;SDS011;52068;50.710;14.492;2024-02-04T08:26:45;8.55;;;3.17;;
65471;SDS011;52068;50.710;14.492;2024-02-04T08:29:10;11.40;;;3.50;;
65471;SDS011;52068;50.710;14.492;2024-02-04T08:31:36;17.35;;;4.13;;
65471;SDS011;52068;50.710;14.492;2024-02-04T08:34:02;8.30;;;4.03;;
65471;SDS011;52068;50.710;14.492;2024-02-04T08:36:28;8.98;;;3.88;;
65471;SDS011;52068;50.710;14.492;2024-02-04T08:38:55;8.63;;;4.35;;
65471;SDS011;52068;50.710;14.492;2024-02-04T08:41:21;7.78;;;3.70;;
65471;SDS011;52068;50.710;14.492;2024-02-04T08:43:46;11.57;;;4.03;;
65471;SDS011;52068;50.710;14.492;2024-02-04T08:46:12;10.70;;;4.32;;
65471;SDS011;52068;50.710;14.492;2024-02-04T08:48:37;6.45;;;3.08;;
65471;SDS011;52068;50.710;14.492;2024-02-04T08:51:03;11.77;;;4.00;;
65471;SDS011;52068;50.710;14.492;2024-02-04T08:53:29;10.18;;;3.47;;
65471;SDS011;52068;50.710;14.492;2024-02-04T08:55:54;7.32;;;3.03;;
65471;SDS011;52068;50.710;14.492;2024-02-04T08:58:22;5.13;;;3.08;;
65471;SDS011;52068;50.710;14.492;2024-02-04T09:00:47;5.15;;;2.90;;
65471;SDS011;52068;50.710;14.492;2024-02-04T09:03:13;5.97;;;2.72;;
65471;SDS011;52068;50.710;14.492;2024-02-04T09:05:38;4.95;;;2.92;;
65471;SDS011;52068;50.710;14.492;2024-02-04T09:08:03;4.90;;;2.42;;
65471;SDS011;52068;50.710;14.492;2024-02-04T09:10:29;4.18;;;2.45;;
65471;SDS011;52068;50.710;14.492;2024-02-04T09:12:54;4.47;;;2.63;;
65471;SDS011;52068;50.710;14.492;2024-02-04T09:15:20;5.95;;;2.78;;
65471;SDS011;52068;50.710;14.492;2024-02-04T09:17:45;3.47;;;2.20;;
65471;SDS011;52068;50.710;14.492;2024-02-04T09:20:11;5.25;;;2.60;;
65471;SDS011;52068;50.710;14.492;2024-02-04T09:22:36;3.85;;;2.00;;
65471;SDS011;52068;50.710;14.492;2024-02-04T09:25:02;4.18;;;1.90;;
65471;SDS011;52068;50.710;14.492;2024-02-04T09:27:28;3.63;;;1.92;;
65471;SDS011;52068;50.710;14.492;2024-02-04T09:29:53;3.30;;;2.00;;
65471;SDS011;52068;50.710;14.492;2024-02-04T09:32:20;3.40;;;1.70;;
65471;SDS011;52068;50.710;14.492;2024-02-04T09:34:45;2.97;;;1.83;;
65471;SDS011;52068;50.710;14.492;2024-02-04T09:37:11;2.55;;;1.75;;
65471;SDS011;52068;50.710;14.492;2024-02-04T09:39:36;2.35;;;1.67;;
65471;SDS011;52068;50.710;14.492;2024-02-04T09:42:01;4.82;;;1.90;;
65471;SDS011;52068;50.710;14.492;2024-02-04T09:44:28;3.45;;;1.60;;
65471;SDS011;52068;50.710;14.492;2024-02-04T09:46:54;3.25;;;1.40;;
65471;SDS011;52068;50.710;14.492;2024-02-04T09:49:23;3.47;;;1.90;;
65471;SDS011;52068;50.710;14.492;2024-02-04T09:51:50;2.65;;;1.77;;
65471;SDS011;52068;50.710;14.492;2024-02-04T09:54:15;2.70;;;1.70;;
65471;SDS011;52068;50.710;14.492;2024-02-04T09:56:43;3.35;;;1.48;;
65471;SDS011;52068;50.710;14.492;2024-02-04T09:59:09;5.47;;;1.45;;
65471;SDS011;52068;50.710;14.492;2024-02-04T10:01:36;6.90;;;1.50;;
65471;SDS011;52068;50.710;14.492;2024-02-04T10:04:01;3.40;;;1.50;;
65471;SDS011;52068;50.710;14.492;2024-02-04T10:06:27;2.80;;;1.58;;
65471;SDS011;52068;50.710;14.492;2024-02-04T10:08:53;3.38;;;1.58;;
65471;SDS011;52068;50.710;14.492;2024-02-04T10:11:18;2.22;;;1.50;;
65471;SDS011;52068;50.710;14.492;2024-02-04T10:13:44;4.82;;;1.40;;
65471;SDS011;52068;50.710;14.492;2024-02-04T10:16:11;1.77;;;1.33;;
65471;SDS011;52068;50.710;14.492;2024-02-04T10:18:37;2.95;;;1.63;;
65471;SDS011;52068;50.710;14.492;2024-02-04T10:21:02;3.10;;;1.40;;
65471;SDS011;52068;50.710;14.492;2024-02-04T10:23:28;3.45;;;1.30;;
65471;SDS011;52068;50.710;14.492;2024-02-04T10:25:59;2.00;;;1.33;;
65471;SDS011;52068;50.710;14.492;2024-02-04T10:28:25;3.40;;;1.48;;
65471;SDS011;52068;50.710;14.492;2024-02-04T10:30:50;4.05;;;1.30;;
65471;SDS011;52068;50.710;14.492;2024-02-04T10:33:16;2.47;;;1.38;;
65471;SDS011;52068;50.710;14.492;2024-02-04T10:35:42;4.18;;;1.23;;
65471;SDS011;52068;50.710;14.492;2024-02-04T10:38:08;3.40;;;1.40;;
65471;SDS011;52068;50.710;14.492;2024-02-04T10:40:35;2.25;;;1.67;;
65471;SDS011;52068;50.710;14.492;2024-02-04T10:43:03;2.30;;;1.40;;
65471;SDS011;52068;50.710;14.492;2024-02-04T10:45:30;2.72;;;1.50;;
65471;SDS011;52068;50.710;14.492;2024-02-04T10:47:57;2.55;;;1.80;;
65471;SDS011;52068;50.710;14.492;2024-02-04T10:50:26;4.03;;;1.50;;
65471;SDS011;52068;50.710;14.492;2024-02-04T10:52:55;5.05;;;1.60;;
65471;SDS011;52068;50.710;14.492;2024-02-04T10:55:26;2.90;;;1.67;;
65471;SDS011;52068;50.710;14.492;2024-02-04T10:57:54;17.75;;;10.43;;
65471;SDS011;52068;50.710;14.492;2024-02-04T11:00:20;29.20;;;17.08;;
65471;SDS011;52068;50.710;14.492;2024-02-04T11:02:45;36.38;;;18.20;;
65471;SDS011;52068;50.710;14.492;2024-02-04T11:05:14;17.30;;;9.60;;
65471;SDS011;52068;50.710;14.492;2024-02-04T11:07:42;40.10;;;21.73;;
65471;SDS011;52068;50.710;14.492;2024-02-04T11:10:08;35.17;;;18.50;;
65471;SDS011;52068;50.710;14.492;2024-02-04T11:12:35;31.73;;;17.20;;
65471;SDS011;52068;50.710;14.492;2024-02-04T11:15:03;25.63;;;15.07;;
65471;SDS011;52068;50.710;14.492;2024-02-04T11:25:49;22.05;;;11.88;;
65471;SDS011;52068;50.710;14.492;2024-02-04T11:28:18;23.17;;;12.60;;
65471;SDS011;52068;50.710;14.492;2024-02-04T11:30:46;19.67;;;11.82;;
65471;SDS011;52068;50.710;14.492;2024-02-04T11:33:13;18.73;;;11.10;;
65471;SDS011;52068;50.710;14.492;2024-02-04T11:35:43;17.17;;;10.35;;
65471;SDS011;52068;50.710;14.492;2024-02-04T11:38:09;17.05;;;9.73;;
65471;SDS011;52068;50.710;14.492;2024-02-04T11:40:36;15.27;;;9.38;;
65471;SDS011;52068;50.710;14.492;2024-02-04T11:43:06;19.90;;;9.13;;
65471;SDS011;52068;50.710;14.492;2024-02-04T11:45:38;16.75;;;9.35;;
65471;SDS011;52068;50.710;14.492;2024-02-04T11:48:08;18.00;;;8.93;;
65471;SDS011;52068;50.710;14.492;2024-02-04T11:50:37;13.35;;;8.13;;
65471;SDS011;52068;50.710;14.492;2024-02-04T11:53:07;13.45;;;7.45;;
65471;SDS011;52068;50.710;14.492;2024-02-04T11:55:34;14.98;;;7.68;;
65471;SDS011;52068;50.710;14.492;2024-02-04T11:58:04;14.38;;;8.07;;
65471;SDS011;52068;50.710;14.492;2024-02-04T12:00:32;13.82;;;6.78;;
65471;SDS011;52068;50.710;14.492;2024-02-04T12:02:59;11.70;;;6.90;;
65471;SDS011;52068;50.710;14.492;2024-02-04T12:05:32;12.35;;;6.55;;
65471;SDS011;52068;50.710;14.492;2024-02-04T12:08:02;9.93;;;6.75;;
65471;SDS011;52068;50.710;14.492;2024-02-04T12:10:32;10.93;;;6.65;;
65471;SDS011;52068;50.710;14.492;2024-02-04T12:12:59;11.48;;;6.05;;
65471;SDS011;52068;50.710;14.492;2024-02-04T12:15:26;11.05;;;6.50;;
65471;SDS011;52068;50.710;14.492;2024-02-04T12:17:53;12.05;;;6.63;;
65471;SDS011;52068;50.710;14.492;2024-02-04T12:20:18;10.05;;;5.95;;
65471;SDS011;52068;50.710;14.492;2024-02-04T12:22:44;9.23;;;5.68;;
65471;SDS011;52068;50.710;14.492;2024-02-04T12:25:09;9.18;;;5.35;;
65471;SDS011;52068;50.710;14.492;2024-02-04T12:27:35;9.40;;;5.47;;
65471;SDS011;52068;50.710;14.492;2024-02-04T12:30:01;10.93;;;5.70;;
65471;SDS011;52068;50.710;14.492;2024-02-04T12:32:26;8.65;;;4.90;;
65471;SDS011;52068;50.710;14.492;2024-02-04T12:34:53;6.72;;;4.35;;
65471;SDS011;52068;50.710;14.492;2024-02-04T12:37:21;8.00;;;4.20;;
65471;SDS011;52068;50.710;14.492;2024-02-04T12:39:47;9.25;;;4.78;;
65471;SDS011;52068;50.710;14.492;2024-02-04T12:42:16;7.30;;;4.10;;
65471;SDS011;52068;50.710;14.492;2024-02-04T12:44:46;9.02;;;4.10;;
65471;SDS011;52068;50.710;14.492;2024-02-04T12:47:13;8.80;;;4.68;;
65471;SDS011;52068;50.710;14.492;2024-02-04T12:49:40;9.00;;;4.30;;
65471;SDS011;52068;50.710;14.492;2024-02-04T12:52:06;7.10;;;4.45;;
65471;SDS011;52068;50.710;14.492;2024-02-04T12:54:44;6.95;;;4.50;;
65471;SDS011;52068;50.710;14.492;2024-02-04T12:57:21;8.82;;;5.13;;
65471;SDS011;52068;50.710;14.492;2024-02-04T12:59:47;9.68;;;4.65;;
65471;SDS011;52068;50.710;14.492;2024-02-04T13:02:13;7.38;;;4.72;;
65471;SDS011;52068;50.710;14.492;2024-02-04T13:04:40;8.40;;;4.95;;
65471;SDS011;52068;50.710;14.492;2024-02-04T13:07:07;7.75;;;5.03;;
65471;SDS011;52068;50.710;14.492;2024-02-04T13:09:37;17.30;;;5.15;;
65471;SDS011;52068;50.710;14.492;2024-02-04T13:12:03;9.77;;;5.30;;
65471;SDS011;52068;50.710;14.492;2024-02-04T13:14:29;9.57;;;5.30;;
65471;SDS011;52068;50.710;14.492;2024-02-04T13:16:54;8.68;;;5.50;;
65471;SDS011;52068;50.710;14.492;2024-02-04T13:19:20;8.40;;;5.80;;
65471;SDS011;52068;50.710;14.492;2024-02-04T13:21:45;12.13;;;5.88;;
65471;SDS011;52068;50.710;14.492;2024-02-04T13:24:11;10.30;;;6.50;;
65471;SDS011;52068;50.710;14.492;2024-02-04T13:26:36;11.80;;;6.60;;
65471;SDS011;52068;50.710;14.492;2024-02-04T13:29:02;9.45;;;6.30;;
65471;SDS011;52068;50.710;14.492;2024-02-04T13:31:27;9.63;;;6.30;;
65471;SDS011;52068;50.710;14.492;2024-02-04T13:33:53;7.90;;;5.80;;
65471;SDS011;52068;50.710;14.492;2024-02-04T13:36:19;11.00;;;6.10;;
65471;SDS011;52068;50.710;14.492;2024-02-04T13:38:44;12.35;;;6.07;;
65471;SDS011;52068;50.710;14.492;2024-02-04T13:41:10;10.65;;;6.65;;
65471;SDS011;52068;50.710;14.492;2024-02-04T13:43:35;11.40;;;6.95;;
65471;SDS011;52068;50.710;14.492;2024-02-04T13:46:00;11.77;;;6.47;;
65471;SDS011;52068;50.710;14.492;2024-02-04T13:48:29;11.52;;;6.50;;
65471;SDS011;52068;50.710;14.492;2024-02-04T13:50:54;11.98;;;6.60;;
65471;SDS011;52068;50.710;14.492;2024-02-04T13:53:20;10.57;;;5.93;;
65471;SDS011;52068;50.710;14.492;2024-02-04T13:55:46;8.82;;;5.95;;
65471;SDS011;52068;50.710;14.492;2024-02-04T13:58:12;9.85;;;5.82;;
65471;SDS011;52068;50.710;14.492;2024-02-04T14:00:37;8.05;;;5.78;;
65471;SDS011;52068;50.710;14.492;2024-02-04T14:03:02;9.88;;;5.80;;
65471;SDS011;52068;50.710;14.492;2024-02-04T14:05:28;14.68;;;6.60;;
65471;SDS011;52068;50.710;14.492;2024-02-04T14:07:53;9.43;;;6.35;;
65471;SDS011;52068;50.710;14.492;2024-02-04T14:10:19;9.38;;;6.47;;
65471;SDS011;52068;50.710;14.492;2024-02-04T14:12:45;9.65;;;6.57;;
65471;SDS011;52068;50.710;14.492;2024-02-04T14:15:11;9.75;;;6.68;;
65471;SDS011;52068;50.710;14.492;2024-02-04T14:17:37;9.93;;;7.28;;
65471;SDS011;52068;50.710;14.492;2024-02-04T14:20:03;11.65;;;7.53;;
65471;SDS011;52068;50.710;14.492;2024-02-04T14:22:29;11.20;;;7.22;;
65471;SDS011;52068;50.710;14.492;2024-02-04T14:24:55;10.73;;;7.53;;
65471;SDS011;52068;50.710;14.492;2024-02-04T14:27:22;15.35;;;7.60;;
65471;SDS011;52068;50.710;14.492;2024-02-04T14:29:47;11.80;;;7.10;;
65471;SDS011;52068;50.710;14.492;2024-02-04T14:32:13;14.90;;;8.15;;
65471;SDS011;52068;50.710;14.492;2024-02-04T14:34:39;10.77;;;7.97;;
65471;SDS011;52068;50.710;14.492;2024-02-04T14:37:04;16.73;;;7.97;;